Time;durP1;ratioP1;P1;durP2;ratioP2;P2;SDS_P1;SDS_P2;PMS_P1;PMS_P2;Temp;Humidity;BMP_temperature;BMP_pressure;BME280_temperature;BME280_humidity;BME280_pressure;Samples;Min_cycle;Max_cycle;Signal;HPM_P1;HPM_P2
2023/09/16 00:00:35;;;;;;;6.63;5.43;;;;;;;16.79;100.00;100276.53;4990251;28;20050;-70
2023/09/16 00:03:04;;;;;;;6.75;5.03;;;;;;;16.71;100.00;100261.03;4987057;28;20061;-70
2023/09/16 00:05:32;;;;;;;6.75;5.78;;;;;;;16.74;100.00;100274.19;4986272;28;20042;-70
2023/09/16 00:08:00;;;;;;;7.45;5.53;;;;;;;16.72;100.00;100281.47;4985768;28;20047;-71
2023/09/16 00:10:29;;;;;;;6.97;5.40;;;;;;;16.72;100.00;100275.25;4973341;28;20058;-69
2023/09/16 00:12:57;;;;;;;7.10;5.38;;;;;;;16.75;100.00;100275.03;4992362;28;20039;-69
2023/09/16 00:15:25;;;;;;;6.07;5.47;;;;;;;16.75;100.00;100283.06;4991378;28;20053;-69
2023/09/16 00:17:52;;;;;;;5.95;4.78;;;;;;;16.74;100.00;100279.53;4955525;28;20069;-70
2023/09/16 00:20:25;;;;;;;8.65;5.57;;;;;;;16.73;100.00;100282.31;4991254;28;20113;-70
2023/09/16 00:22:53;;;;;;;7.15;5.85;;;;;;;16.67;100.00;100274.78;4984454;28;20066;-70
2023/09/16 00:25:21;;;;;;;6.80;5.40;;;;;;;16.67;100.00;100285.47;4974213;28;20494;-72
2023/09/16 00:27:52;;;;;;;6.70;5.13;;;;;;;16.64;100.00;100281.19;4963571;28;20056;-71
2023/09/16 00:30:21;;;;;;;6.57;5.25;;;;;;;16.59;100.00;100274.44;4990649;28;20044;-70
2023/09/16 00:32:50;;;;;;;6.85;5.50;;;;;;;16.64;100.00;100278.50;4990272;28;20042;-70
2023/09/16 00:35:19;;;;;;;;;;;;;;;16.61;100.00;100272.50;4993298;28;20042;-71
2023/09/16 00:37:47;;;;;;;6.20;5.32;;;;;;;16.58;100.00;100262.88;4970509;28;19930;-71
2023/09/16 00:40:16;;;;;;;6.40;5.20;;;;;;;16.58;100.00;100267.38;4993359;28;20710;-70
2023/09/16 00:42:44;;;;;;;6.88;5.68;;;;;;;16.58;100.00;100272.72;4977342;28;20529;-70
2023/09/16 00:45:14;;;;;;;6.90;5.05;;;;;;;16.55;100.00;100268.44;5006524;28;20050;-70
2023/09/16 00:47:42;;;;;;;7.80;5.65;;;;;;;16.55;100.00;100273.78;5002403;28;20046;-70
2023/09/16 00:50:12;;;;;;;7.05;5.90;;;;;;;16.54;100.00;100271.22;4994290;28;20134;-70
2023/09/16 00:52:45;;;;;;;6.65;5.72;;;;;;;16.52;100.00;100262.50;4993477;28;20105;-71
2023/09/16 00:55:13;;;;;;;5.70;5.00;;;;;;;16.37;100.00;100232.41;4975321;28;20054;-71
2023/09/16 00:57:46;;;;;;;5.55;5.03;;;;;;;16.48;100.00;100251.19;4982974;28;20664;-70
2023/09/16 01:00:17;;;;;;;6.20;5.60;;;;;;;16.47;100.00;100261.00;4973231;28;20054;-70
2023/09/16 01:02:46;;;;;;;6.35;5.13;;;;;;;16.44;100.00;100255.03;4993759;28;20082;-70
2023/09/16 01:05:17;;;;;;;6.55;5.63;;;;;;;16.33;100.00;100242.47;4991725;28;20041;-70
2023/09/16 01:07:46;;;;;;;7.25;4.95;;;;;;;16.41;100.00;100265.94;4980506;28;20034;-71
2023/09/16 01:10:15;;;;;;;6.65;5.22;;;;;;;16.42;100.00;100259.63;4956719;28;20572;-70
2023/09/16 01:12:43;;;;;;;5.93;5.35;;;;;;;16.39;100.00;100257.19;4972538;28;20511;-71
2023/09/16 01:15:18;;;;;;;7.65;5.50;;;;;;;16.38;100.00;100261.66;4972601;28;20046;-70
2023/09/16 01:17:54;;;;;;;5.45;4.80;;;;;;;16.43;100.00;100272.88;4987104;28;20061;-69
2023/09/16 01:20:23;;;;;;;7.70;5.70;;;;;;;16.45;100.00;100264.75;4982211;28;20749;-69
2023/09/16 01:22:51;;;;;;;5.97;5.38;;;;;;;16.45;100.00;100257.59;4982897;28;20144;-69
2023/09/16 01:25:21;;;;;;;9.02;5.28;;;;;;;16.48;100.00;100257.38;4975240;28;20532;-70
2023/09/16 01:27:49;;;;;;;5.37;4.87;;;;;;;16.48;100.00;100262.72;4980438;28;20050;-70
2023/09/16 01:30:17;;;;;;;5.80;4.88;;;;;;;16.45;100.00;100257.59;4987010;28;20051;-69
2023/09/16 01:32:54;;;;;;;6.85;5.00;;;;;;;16.44;100.00;100249.69;4960621;28;20136;-70
2023/09/16 01:35:27;;;;;;;6.72;4.85;;;;;;;16.44;100.00;100249.69;4993379;28;20076;-70
2023/09/16 01:37:58;;;;;;;6.18;4.55;;;;;;;16.40;100.00;100249.03;4968473;28;20046;-71
2023/09/16 01:40:28;;;;;;;7.05;5.18;;;;;;;16.41;100.00;100256.09;4975599;28;20089;-70
2023/09/16 01:42:59;;;;;;;6.97;4.82;;;;;;;16.38;100.00;100240.28;4985445;28;20046;-70
2023/09/16 01:45:40;;;;;;;7.47;5.32;;;;;;;16.41;100.00;100256.09;4973367;28;20046;-70
2023/09/16 01:48:08;;;;;;;5.55;4.97;;;;;;;16.46;100.00;100251.28;4987290;28;20050;-70
2023/09/16 01:50:37;;;;;;;6.32;4.80;;;;;;;16.46;100.00;100258.44;4974147;28;20050;-70
2023/09/16 01:53:07;;;;;;;8.55;5.43;;;;;;;16.46;100.00;100261.13;4989571;28;20038;-70
2023/09/16 01:55:37;;;;;;;;;;;;;;;16.44;100.00;100266.56;4977057;28;20046;-70
2023/09/16 01:58:08;;;;;;;6.18;4.90;;;;;;;16.40;100.00;100264.22;4966848;28;20182;-70
2023/09/16 02:00:36;;;;;;;;;;;;;;;16.41;100.00;100258.78;4991800;28;20093;-70
2023/09/16 02:03:04;;;;;;;6.28;4.63;;;;;;;16.38;100.00;100256.31;4987737;28;19936;-70
2023/09/16 02:05:32;;;;;;;6.25;4.80;;;;;;;16.41;100.00;100256.09;4972291;28;20413;-70
2023/09/16 02:08:01;;;;;;;5.13;4.63;;;;;;;16.32;100.00;100246.09;4982248;28;20174;-70
2023/09/16 02:10:29;;;;;;;6.35;4.90;;;;;;;16.40;100.00;100257.06;4970693;28;20066;-70
2023/09/16 02:12:59;;;;;;;7.53;4.93;;;;;;;16.40;100.00;100258.88;4970792;28;20109;-69
2023/09/16 02:15:28;;;;;;;6.43;5.20;;;;;;;16.38;100.00;100260.81;4990936;28;20061;-69
2023/09/16 02:17:56;;;;;;;5.22;4.72;;;;;;;16.36;100.00;100257.44;4982021;28;20120;-70
2023/09/16 02:20:26;;;;;;;5.55;4.93;;;;;;;16.37;100.00;100259.97;4967972;28;20582;-69
2023/09/16 02:22:54;;;;;;;5.57;4.97;;;;;;;16.39;100.00;100262.53;4969994;28;20046;-70
2023/09/16 02:25:22;;;;;;;5.60;4.20;;;;;;;16.32;100.00;100256.78;4972072;28;20046;-70
2023/09/16 02:27:51;;;;;;;5.90;4.45;;;;;;;16.39;100.00;100270.53;4965126;28;20063;-70
2023/09/16 02:30:22;;;;;;;4.75;4.32;;;;;;;16.38;100.00;100264.34;4968382;28;20434;-70
2023/09/16 02:32:51;;;;;;;6.60;4.22;;;;;;;16.35;100.00;100267.25;4986978;28;20691;-70
2023/09/16 02:35:20;;;;;;;6.18;4.88;;;;;;;16.29;100.00;100267.69;4966339;28;20487;-71
2023/09/16 02:37:48;;;;;;;5.20;4.60;;;;;;;16.27;100.00;100256.25;4964973;28;20050;-70
2023/09/16 02:40:17;;;;;;;5.15;4.47;;;;;;;16.26;100.00;100262.56;4967318;28;20047;-70
2023/09/16 02:42:47;;;;;;;;;;;;;;;16.26;100.00;100253.69;4985001;28;20053;-70
2023/09/16 02:45:16;;;;;;;5.15;4.50;;;;;;;16.24;100.00;100256.47;4982263;28;19930;-70
2023/09/16 02:47:45;;;;;;;5.53;4.20;;;;;;;16.21;100.00;100259.41;4962953;28;20055;-70
2023/09/16 02:50:14;;;;;;;5.53;3.97;;;;;;;16.18;100.00;100259.63;4987390;28;20094;-70
2023/09/16 02:52:42;;;;;;;4.70;4.15;;;;;;;16.20;100.00;100267.53;4970709;28;20158;-70
2023/09/16 02:55:10;;;;;;;5.43;4.32;;;;;;;16.20;100.00;100263.03;4982001;28;20495;-69
2023/09/16 02:57:39;;;;;;;4.72;4.18;;;;;;;16.18;100.00;100266.78;4964209;28;20411;-70
2023/09/16 03:00:08;;;;;;;5.45;4.60;;;;;;;16.18;100.00;100264.09;4966603;28;20145;-69
2023/09/16 03:02:36;;;;;;;4.63;4.15;;;;;;;16.16;100.00;100261.53;4954604;28;20062;-70
2023/09/16 03:05:06;;;;;;;4.70;4.30;;;;;;;16.17;100.00;100267.72;4970927;28;20134;-70
2023/09/16 03:07:34;;;;;;;4.65;4.25;;;;;;;16.15;100.00;100265.16;4978337;28;20042;-70
2023/09/16 03:10:01;;;;;;;6.53;4.80;;;;;;;16.14;100.00;100256.31;4966808;28;20050;-71
2023/09/16 03:12:29;;;;;;;6.60;4.55;;;;;;;16.11;100.00;100251.16;4983211;28;20046;-70
2023/09/16 03:14:58;;;;;;;5.63;4.32;;;;;;;16.09;100.00;100260.25;4982511;28;20055;-70
2023/09/16 03:17:27;;;;;;;7.18;4.55;;;;;;;16.00;100.00;100240.41;4960021;28;20951;-70
2023/09/16 03:19:55;;;;;;;6.22;4.45;;;;;;;16.11;100.00;100256.50;4965533;28;20202;-70
2023/09/16 03:22:24;;;;;;;4.60;4.18;;;;;;;16.09;100.00;100260.25;4985885;28;20055;-69
2023/09/16 03:24:52;;;;;;;5.68;4.07;;;;;;;16.10;100.00;100248.59;4969725;28;20094;-70
2023/09/16 03:27:20;;;;;;;4.93;4.43;;;;;;;16.03;100.00;100245.53;4982017;28;20054;-70
2023/09/16 03:29:49;;;;;;;5.22;4.60;;;;;;;16.06;100.00;100255.13;4950139;28;20254;-70
2023/09/16 03:32:17;;;;;;;4.20;3.80;;;;;;;16.04;100.00;100257.94;4969464;28;20380;-70
2023/09/16 03:34:46;;;;;;;4.38;3.97;;;;;;;15.99;100.00;100243.19;4983330;28;20134;-70
2023/09/16 03:37:16;;;;;;;4.63;4.10;;;;;;;15.84;100.00;100228.28;4974012;28;20138;-71
2023/09/16 03:39:46;;;;;;;4.97;4.22;;;;;;;15.96;100.00;100259.44;4953995;28;20403;-71
2023/09/16 03:42:14;;;;;;;6.30;4.97;;;;;;;15.94;100.00;100243.50;4969826;28;20162;-70
2023/09/16 03:44:43;;;;;;;4.32;3.83;;;;;;;15.92;100.00;100248.09;4952860;28;20051;-70
2023/09/16 03:47:12;;;;;;;5.90;4.05;;;;;;;15.84;100.00;100225.59;4988786;28;20050;-69
2023/09/16 03:49:42;;;;;;;5.13;4.22;;;;;;;15.94;100.00;100248.84;4984069;28;20042;-70
2023/09/16 03:52:10;;;;;;;5.80;4.18;;;;;;;15.91;100.00;100251.75;4959768;28;20034;-70
2023/09/16 03:54:38;;;;;;;6.03;4.80;;;;;;;15.89;100.00;100248.34;4956996;28;20049;-70
2023/09/16 03:57:07;;;;;;;4.75;4.28;;;;;;;15.79;100.00;100228.59;4951337;28;20547;-71
2023/09/16 03:59:35;;;;;;;7.88;4.28;;;;;;;15.86;100.00;100245.03;4980343;28;20043;-70
2023/09/16 04:02:03;;;;;;;5.07;4.35;;;;;;;15.76;100.00;100231.47;4989134;28;20053;-70
2023/09/16 04:04:31;;;;;;;5.03;4.50;;;;;;;15.85;100.00;100240.66;4973340;28;20085;-71
2023/09/16 04:06:59;;;;;;;4.72;4.28;;;;;;;15.84;100.00;100239.81;4970547;28;20133;-70
2023/09/16 04:09:28;;;;;;;5.22;4.20;;;;;;;15.78;100.00;100235.75;4969358;28;20051;-70
2023/09/16 04:11:56;;;;;;;5.95;4.75;;;;;;;15.80;100.00;100243.66;4971309;28;20047;-70
2023/09/16 04:14:26;;;;;;;5.90;4.53;;;;;;;15.77;100.00;100246.53;4973814;28;20133;-70
2023/09/16 04:16:53;;;;;;;7.38;4.75;;;;;;;15.75;100.00;100246.63;4971455;28;20047;-70
2023/09/16 04:19:22;;;;;;;6.80;4.80;;;;;;;15.72;100.00;100240.69;4948755;28;20070;-69
2023/09/16 04:21:51;;;;;;;5.53;4.70;;;;;;;15.73;100.00;100234.38;4985888;28;20042;-70
2023/09/16 04:24:20;;;;;;;6.85;4.75;;;;;;;15.70;100.00;100239.94;4956285;28;20403;-70
2023/09/16 04:26:48;;;;;;;6.30;5.07;;;;;;;15.64;100.00;100243.88;4971313;28;20047;-70
2023/09/16 04:29:16;;;;;;;5.25;4.65;;;;;;;15.57;100.00;100234.59;4982182;28;20039;-70
2023/09/16 04:31:47;;;;;;;6.93;4.75;;;;;;;15.35;100.00;100210.34;4971988;28;20410;-70
2023/09/16 04:34:15;;;;;;;;;;;;;;;15.54;100.00;100242.78;4973827;28;20074;-70
2023/09/16 04:36:44;;;;;;;5.43;4.93;;;;;;;15.50;100.00;100248.44;4993875;28;19948;-70
2023/09/16 04:39:12;;;;;;;6.72;4.70;;;;;;;15.46;100.00;100245.13;4983299;28;22046;-70
2023/09/16 04:41:40;;;;;;;7.60;4.82;;;;;;;15.39;100.00;100238.53;4963111;28;20042;-70
2023/09/16 04:44:10;;;;;;;6.63;4.90;;;;;;;15.40;100.00;100245.56;5005421;28;20049;-70
2023/09/16 04:46:40;;;;;;;7.30;4.60;;;;;;;15.36;100.00;100244.06;4985835;28;20651;-70
2023/09/16 04:49:10;;;;;;;7.03;5.18;;;;;;;15.36;100.00;100244.91;5004786;28;20058;-70
2023/09/16 04:51:39;;;;;;;7.80;5.22;;;;;;;15.39;100.00;100238.53;5001955;28;20042;-70
2023/09/16 04:54:08;;;;;;;6.90;5.60;;;;;;;15.40;100.00;100240.22;4978912;28;20184;-70
2023/09/16 04:56:36;;;;;;;10.02;5.53;;;;;;;15.45;100.00;100246.09;4994666;28;20052;-70
2023/09/16 04:59:05;;;;;;;7.03;5.18;;;;;;;15.40;100.00;100241.09;4938771;28;20227;-70
2023/09/16 05:01:34;;;;;;;5.30;4.80;;;;;;;15.36;100.00;100239.59;4978172;28;20050;-70
2023/09/16 05:04:04;;;;;;;6.38;5.13;;;;;;;15.35;100.00;100242.34;4977482;28;20096;-69
2023/09/16 05:06:34;;;;;;;6.03;5.10;;;;;;;15.30;100.00;100239.13;4988843;28;20046;-70
2023/09/16 05:09:02;;;;;;;7.07;5.22;;;;;;;15.27;100.00;100242.00;4981852;28;20060;-70
2023/09/16 05:11:31;;;;;;;9.65;6.35;;;;;;;15.22;100.00;100233.50;4994432;28;20046;-70
2023/09/16 05:14:01;;;;;;;7.15;5.70;;;;;;;15.14;100.00;100225.16;4971415;28;20049;-70
2023/09/16 05:16:29;;;;;;;8.48;5.90;;;;;;;15.08;100.00;100229.09;4973320;28;20046;-70
2023/09/16 05:19:02;;;;;;;9.38;5.82;;;;;;;15.02;100.00;100235.69;4977606;28;20904;-69
2023/09/16 05:21:30;;;;;;;9.10;6.18;;;;;;;15.07;100.00;100240.72;4993200;28;20046;-70
2023/09/16 05:24:00;;;;;;;7.80;5.78;;;;;;;15.06;100.00;100231.88;4980684;28;20046;-70
2023/09/16 05:26:30;;;;;;;7.88;6.03;;;;;;;15.11;100.00;100238.72;4996714;28;20054;-70
2023/09/16 05:28:58;;;;;;;7.38;6.22;;;;;;;15.13;100.00;100236.78;4985163;28;20130;-71
2023/09/16 05:31:29;;;;;;;7.53;6.18;;;;;;;15.14;100.00;100223.34;4977467;28;20046;-69
2023/09/16 05:33:58;;;;;;;8.30;6.10;;;;;;;15.15;100.00;100226.84;4985923;28;20702;-70
2023/09/16 05:36:27;;;;;;;9.38;6.55;;;;;;;15.08;100.00;100223.78;4989108;28;20137;-70
2023/09/16 05:38:55;;;;;;;6.32;5.57;;;;;;;15.17;100.00;100227.59;4965358;28;20096;-70
2023/09/16 05:41:24;;;;;;;10.15;6.00;;;;;;;15.18;100.00;100232.00;4972307;28;20060;-70
2023/09/16 05:43:52;;;;;;;8.02;6.13;;;;;;;15.16;100.00;100221.41;4989334;28;20134;-69
2023/09/16 05:46:21;;;;;;;9.13;5.80;;;;;;;15.23;100.00;100228.06;4988816;28;20035;-69
2023/09/16 05:48:49;;;;;;;8.23;5.90;;;;;;;15.27;100.00;100232.19;4984232;28;20131;-69
2023/09/16 05:51:18;;;;;;;8.32;5.85;;;;;;;15.35;100.00;100237.03;4988640;28;20050;-70
2023/09/16 05:53:46;;;;;;;8.27;6.60;;;;;;;15.38;100.00;100234.16;4990539;28;20061;-70
2023/09/16 05:56:14;;;;;;;8.48;6.03;;;;;;;15.39;100.00;100233.19;4989198;28;20046;-70
2023/09/16 05:58:48;;;;;;;7.80;5.60;;;;;;;15.47;100.00;100236.16;4981453;28;20053;-70
2023/09/16 06:01:19;;;;;;;8.50;6.20;;;;;;;15.49;100.00;100234.25;4991836;28;20122;-69
2023/09/16 06:03:47;;;;;;;6.72;5.35;;;;;;;15.47;100.00;100227.28;4995391;28;20051;-71
2023/09/16 06:06:17;;;;;;;7.80;6.60;;;;;;;15.47;100.00;100224.63;4989876;28;20129;-70
2023/09/16 06:08:45;;;;;;;6.57;5.57;;;;;;;15.50;100.00;100235.94;4981678;28;20050;-70
2023/09/16 06:11:13;;;;;;;8.13;6.10;;;;;;;15.54;100.00;100231.25;4993468;28;20042;-70
2023/09/16 06:13:42;;;;;;;8.52;5.80;;;;;;;15.57;100.00;100223.94;4961659;28;20042;-70
2023/09/16 06:16:12;;;;;;;9.80;6.50;;;;;;;15.63;100.00;100226.16;4972703;28;20443;-70
2023/09/16 06:18:40;;;;;;;7.20;5.93;;;;;;;15.71;100.00;100230.97;4951659;28;20945;-70
2023/09/16 06:21:09;;;;;;;6.50;5.75;;;;;;;15.72;100.00;100233.53;4963471;28;20050;-69
2023/09/16 06:23:37;;;;;;;7.25;5.63;;;;;;;15.83;100.00;100245.25;4959683;28;20501;-70
2023/09/16 06:26:05;;;;;;;6.75;5.60;;;;;;;15.83;100.00;100238.09;4989061;28;20528;-70
2023/09/16 06:28:34;;;;;;;6.80;5.47;;;;;;;15.95;100.00;100239.88;4978134;28;20062;-70
2023/09/16 06:31:02;;;;;;;6.80;5.60;;;;;;;16.02;100.00;100234.97;4967392;28;20043;-70
2023/09/16 06:33:32;;;;;;;8.20;5.63;;;;;;;16.08;100.00;100243.38;4976514;28;20059;-69
2023/09/16 06:36:00;;;;;;;6.40;5.10;;;;;;;16.18;100.00;100232.03;4988145;28;20140;-69
2023/09/16 06:38:31;;;;;;;7.68;5.45;;;;;;;16.37;100.00;100235.91;4959681;28;20069;-70
2023/09/16 06:40:59;;;;;;;8.10;5.40;;;;;;;16.46;100.00;100240.59;4952116;28;20054;-69
2023/09/16 06:43:27;;;;;;;6.15;5.53;;;;;;;16.59;100.00;100235.19;4987157;28;20043;-70
2023/09/16 06:45:57;;;;;;;5.82;5.22;;;;;;;16.78;100.00;100235.56;4987863;28;20058;-73
2023/09/16 06:48:25;;;;;;;9.30;5.53;;;;;;;17.08;100.00;100237.72;4984833;28;20052;-71
2023/09/16 06:50:54;;;;;;;5.57;4.80;;;;;;;17.39;100.00;100241.56;4968637;28;20043;-70
2023/09/16 06:53:22;;;;;;;9.57;5.28;;;;;;;17.66;100.00;100224.34;4987346;28;20047;-70
2023/09/16 06:55:50;;;;;;;6.97;4.95;;;;;;;18.01;100.00;100237.59;4965287;28;20054;-71
2023/09/16 06:58:20;;;;;;;7.43;5.40;;;;;;;18.25;100.00;100235.66;4966671;28;20034;-70
2023/09/16 07:00:48;;;;;;;6.28;5.03;;;;;;;18.53;100.00;100234.22;4963215;28;20043;-70
2023/09/16 07:03:16;;;;;;;6.43;5.07;;;;;;;18.80;100.00;100237.31;4961534;28;20146;-70
2023/09/16 07:05:47;;;;;;;5.78;4.93;;;;;;;19.02;100.00;100238.22;4964066;28;20053;-70
2023/09/16 07:08:18;;;;;;;7.03;4.68;;;;;;;19.22;100.00;100242.72;4967520;28;20058;-70
2023/09/16 07:10:45;;;;;;;9.60;5.32;;;;;;;19.38;100.00;100245.81;4977316;28;20495;-71
2023/09/16 07:13:15;;;;;;;6.95;4.93;;;;;;;19.45;100.00;100232.72;4965526;28;20118;-71
2023/09/16 07:15:42;;;;;;;5.93;5.00;;;;;;;19.53;100.00;100238.28;4966486;28;20074;-73
2023/09/16 07:18:10;;;;;;;4.93;4.32;;;;;;;19.66;100.00;100235.41;4950023;28;20692;-74
2023/09/16 07:20:39;;;;;;;10.55;5.07;;;;;;;19.72;100.00;100229.47;4960644;28;20047;-73
2023/09/16 07:23:07;;;;;;;8.80;4.65;;;;;;;19.82;100.00;100233.09;4968200;28;20054;-73
2023/09/16 07:25:38;;;;;;;7.45;4.85;;;;;;;19.86;100.00;100231.81;4968614;28;20046;-76
2023/09/16 07:28:07;;;;;;;8.63;4.60;;;;;;;19.91;100.00;100243.00;4975873;28;20462;-72
2023/09/16 07:30:36;;;;;;;10.75;4.57;;;;;;;20.10;100.00;100242.22;4952680;28;20565;-72
2023/09/16 07:33:05;;;;;;;8.95;4.63;;;;;;;20.26;100.00;100246.09;4963610;28;20097;-73
2023/09/16 07:35:33;;;;;;;8.93;4.75;;;;;;;20.40;100.00;100234.13;4961481;28;20724;-73
2023/09/16 07:38:01;;;;;;;6.93;4.50;;;;;;;20.49;100.00;100235.97;4965548;28;20344;-76
2023/09/16 07:40:32;;;;;;;7.97;4.65;;;;;;;20.48;100.00;100226.22;4977316;28;20079;-80
2023/09/16 07:43:01;;;;;;;5.80;4.53;;;;;;;20.49;100.00;100222.53;4982796;28;20062;-75
2023/09/16 07:45:38;;;;;;;7.65;4.30;;;;;;;20.92;100.00;100242.84;4969948;28;20130;-79
2023/09/16 07:48:10;;;;;;;4.70;4.30;;;;;;;21.20;97.33;100247.38;4967611;28;20106;-74
2023/09/16 07:50:38;;;;;;;8.05;5.03;;;;;;;21.50;92.64;100240.09;4963382;28;20043;-74
2023/09/16 07:53:06;;;;;;;6.40;4.78;;;;;;;21.40;95.50;100240.13;4970700;28;21293;-76
2023/09/16 07:55:34;;;;;;;5.07;4.55;;;;;;;21.37;94.76;100244.94;4985711;28;20141;-75
2023/09/16 07:58:04;;;;;;;6.82;4.57;;;;;;;21.28;97.80;100250.19;4967691;28;20039;-76
2023/09/16 08:00:32;;;;;;;9.87;4.60;;;;;;;21.29;95.96;100248.34;4945424;28;20334;-74
2023/09/16 08:03:00;;;;;;;7.38;4.65;;;;;;;21.20;98.09;100250.06;4970050;28;20475;-74
2023/09/16 08:05:28;;;;;;;8.77;4.88;;;;;;;21.12;98.87;100240.97;4965655;28;20051;-74
2023/09/16 08:07:57;;;;;;;9.65;4.75;;;;;;;21.20;100.00;100247.38;4983355;28;20499;-73
2023/09/16 08:10:25;;;;;;;5.97;4.60;;;;;;;21.26;99.26;100246.78;4959536;28;20035;-74
2023/09/16 08:12:53;;;;;;;6.82;4.35;;;;;;;21.10;99.45;100237.56;4982907;28;20054;-72
2023/09/16 08:15:23;;;;;;;5.30;4.38;;;;;;;21.06;98.24;100246.94;4968472;28;20051;-72
2023/09/16 08:17:57;;;;;;;6.28;4.40;;;;;;;21.16;97.48;100248.63;4968514;28;20051;-73
2023/09/16 08:20:28;;;;;;;5.43;4.50;;;;;;;21.19;96.13;100259.13;4962234;28;20127;-74
2023/09/16 08:22:56;;;;;;;5.78;4.50;;;;;;;21.15;98.20;100248.75;4980029;28;20141;-74
2023/09/16 08:25:24;;;;;;;6.32;4.28;;;;;;;21.27;98.70;100261.09;4969346;28;20073;-76
2023/09/16 08:27:52;;;;;;;6.28;4.20;;;;;;;21.33;99.62;100257.84;4964496;28;20051;-76
2023/09/16 08:30:22;;;;;;;4.72;4.32;;;;;;;21.48;96.33;100264.47;4965142;28;20111;-75
2023/09/16 08:32:52;;;;;;;5.78;4.85;;;;;;;21.63;91.12;100263.03;4972218;28;20410;-77
2023/09/16 08:35:21;;;;;;;;;;;;;;;21.62;91.68;100263.16;4971416;28;20458;-76
2023/09/16 08:37:49;;;;;;;7.10;5.00;;;;;;;21.47;93.38;100251.16;4983878;28;20305;-77
2023/09/16 08:40:17;;;;;;;5.35;4.82;;;;;;;21.47;92.95;100272.72;4969075;28;20259;-76
2023/09/16 08:42:53;;;;;;;5.70;5.03;;;;;;;21.39;95.16;100261.81;4976261;28;20047;-72
2023/09/16 08:45:25;;;;;;;5.20;4.70;;;;;;;21.42;93.12;100264.19;4967505;28;20574;-73
2023/09/16 08:48:01;;;;;;;5.93;4.70;;;;;;;21.52;94.41;100273.97;4970772;28;20415;-72
2023/09/16 08:50:32;;;;;;;6.57;5.18;;;;;;;21.56;91.95;100271.84;4948670;28;20046;-74
2023/09/16 08:53:06;;;;;;;5.82;5.05;;;;;;;21.65;92.90;100284.44;4984953;28;20051;-74
2023/09/16 08:55:35;;;;;;;5.70;5.13;;;;;;;21.65;92.56;100282.59;4970235;28;20054;-74
2023/09/16 08:58:06;;;;;;;8.30;5.28;;;;;;;21.51;93.46;100253.41;4949956;28;20051;-73
2023/09/16 09:00:34;;;;;;;6.78;4.95;;;;;;;21.52;93.17;100268.59;4983216;28;20043;-74
2023/09/16 09:03:04;;;;;;;9.35;5.40;;;;;;;21.42;94.55;100274.97;4969227;28;20039;-74
2023/09/16 09:05:32;;;;;;;;;;;;;;;21.44;95.18;100271.16;4987272;28;20460;-75
2023/09/16 09:08:08;;;;;;;7.40;5.50;;;;;;;21.30;95.65;100245.50;4989065;28;19957;-74
2023/09/16 09:10:37;;;;;;;6.20;5.30;;;;;;;21.54;95.88;100273.84;4967893;28;20043;-73
2023/09/16 09:13:11;;;;;;;8.45;5.43;;;;;;;21.52;95.87;100267.75;4971501;28;20050;-74
2023/09/16 09:15:42;;;;;;;6.47;5.60;;;;;;;21.56;95.10;100285.31;4971069;28;20422;-76
2023/09/16 09:18:12;;;;;;;7.18;5.60;;;;;;;21.55;95.87;100270.16;4971386;28;20094;-71
2023/09/16 09:20:40;;;;;;;;;;;;;;;21.68;94.39;100271.53;4968888;28;20051;-73
2023/09/16 09:23:08;;;;;;;6.07;5.30;;;;;;;21.79;94.11;100273.19;4984741;28;19926;-73
2023/09/16 09:25:41;;;;;;;8.98;5.82;;;;;;;21.82;92.90;100272.91;4968956;28;20050;-73
2023/09/16 09:28:10;;;;;;;5.60;5.10;;;;;;;21.79;93.92;100267.81;4969059;28;20034;-73
2023/09/16 09:30:39;;;;;;;8.35;5.50;;;;;;;21.83;94.66;100274.59;4978814;28;20047;-73
2023/09/16 09:33:14;;;;;;;5.88;5.28;;;;;;;21.76;93.42;100253.75;4983258;28;20078;-74
2023/09/16 09:35:43;;;;;;;5.85;5.03;;;;;;;22.05;94.16;100270.72;4984962;28;20046;-73
2023/09/16 09:38:11;;;;;;;5.25;4.75;;;;;;;22.15;94.26;100258.03;4986741;28;20047;-72
2023/09/16 09:40:40;;;;;;;7.15;5.85;;;;;;;22.33;92.91;100263.50;4987494;28;20062;-73
2023/09/16 09:43:08;;;;;;;5.90;5.05;;;;;;;22.33;92.49;100231.97;4971462;28;20395;-72
2023/09/16 09:45:38;;;;;;;5.63;5.05;;;;;;;22.75;88.62;100267.34;4973175;28;20546;-73
2023/09/16 09:48:06;;;;;;;5.60;5.03;;;;;;;22.88;87.40;100272.38;4977274;28;20101;-72
2023/09/16 09:50:36;;;;;;;6.82;6.13;;;;;;;22.99;87.37;100260.47;4969787;28;20070;-73
2023/09/16 09:53:05;;;;;;;6.43;5.65;;;;;;;23.13;88.13;100270.78;4990059;28;20138;-74
2023/09/16 09:55:38;;;;;;;7.10;5.75;;;;;;;23.20;85.41;100263.72;4970072;28;20050;-74
2023/09/16 09:58:06;;;;;;;7.18;5.47;;;;;;;23.34;84.36;100270.41;4962989;28;20070;-72
2023/09/16 10:00:34;;;;;;;8.05;5.68;;;;;;;23.29;82.91;100253.84;4979008;28;20051;-73
2023/09/16 10:03:03;;;;;;;6.32;5.20;;;;;;;23.38;82.95;100264.56;4986970;28;20129;-73
2023/09/16 10:05:36;;;;;;;6.15;5.50;;;;;;;23.49;83.36;100263.44;4965536;28;20113;-73
2023/09/16 10:08:05;;;;;;;6.90;5.40;;;;;;;23.47;82.05;100251.94;4971913;28;20396;-73
2023/09/16 10:10:35;;;;;;;7.03;6.28;;;;;;;23.54;80.84;100255.75;4971705;28;20048;-74
2023/09/16 10:13:07;;;;;;;6.13;5.32;;;;;;;23.57;82.34;100257.28;4964489;28;20070;-72
2023/09/16 10:15:40;;;;;;;7.90;6.25;;;;;;;23.63;83.15;100260.19;4975916;28;20047;-73
2023/09/16 10:18:09;;;;;;;8.07;5.93;;;;;;;23.62;82.50;100263.03;4988393;28;20038;-73
2023/09/16 10:20:43;;;;;;;8.63;6.15;;;;;;;23.39;84.75;100254.59;4971826;28;20054;-73
2023/09/16 10:23:11;;;;;;;7.35;5.88;;;;;;;23.27;86.60;100255.84;4968253;28;20047;-73
2023/09/16 10:25:42;;;;;;;13.10;10.70;;;;;;;23.23;87.53;100244.50;4973220;28;20055;-72
2023/09/16 10:28:12;;;;;;;7.65;6.40;;;;;;;23.42;87.91;100254.28;4992654;28;20142;-73
2023/09/16 10:30:40;;;;;;;6.18;5.57;;;;;;;23.62;86.62;100253.06;4969988;28;20054;-73
2023/09/16 10:33:10;;;;;;;5.88;5.07;;;;;;;23.82;82.87;100245.59;4969828;28;20070;-74
2023/09/16 10:35:42;;;;;;;16.35;11.60;;;;;;;23.98;83.19;100236.72;4971616;28;20059;-74
2023/09/16 10:38:12;;;;;;;7.00;6.30;;;;;;;24.20;80.58;100235.31;4978341;28;20062;-73
2023/09/16 10:40:43;;;;;;;7.22;5.88;;;;;;;24.33;79.88;100238.44;4969220;28;20062;-74
2023/09/16 10:43:16;;;;;;;6.63;5.57;;;;;;;24.34;80.35;100232.00;4968287;28;20046;-73
2023/09/16 10:45:46;;;;;;;6.30;5.70;;;;;;;24.37;78.07;100226.25;4970887;28;20450;-73
2023/09/16 10:48:13;;;;;;;6.75;5.68;;;;;;;24.47;77.57;100235.09;4971926;28;20046;-74
2023/09/16 10:50:44;;;;;;;9.48;6.90;;;;;;;24.55;78.28;100231.56;4968108;28;20055;-74
2023/09/16 10:53:16;;;;;;;6.32;5.72;;;;;;;24.58;77.54;100226.63;4981840;28;20455;-73
2023/09/16 10:55:52;;;;;;;11.05;5.80;;;;;;;24.62;76.47;100224.44;4977721;28;20047;-73
2023/09/16 10:58:28;;;;;;;6.28;5.65;;;;;;;24.71;76.27;100223.47;4984444;28;20039;-73
2023/09/16 11:00:59;;;;;;;5.97;5.38;;;;;;;24.74;75.96;100210.41;4985685;28;20048;-73
2023/09/16 11:03:30;;;;;;;6.72;5.53;;;;;;;24.94;74.21;100231.81;4973145;28;20411;-73
2023/09/16 11:06:02;;;;;;;6.05;5.45;;;;;;;25.00;74.40;100231.16;4951816;28;20795;-73
2023/09/16 11:08:31;;;;;;;8.32;5.53;;;;;;;25.10;73.75;100226.41;4937258;28;20064;-72
2023/09/16 11:10:59;;;;;;;7.60;6.15;;;;;;;25.18;75.38;100215.56;4981392;28;20425;-72
2023/09/16 11:13:29;;;;;;;10.65;7.82;;;;;;;25.18;75.22;100223.69;4968698;28;20054;-73
2023/09/16 11:16:01;;;;;;;7.82;5.88;;;;;;;24.98;75.54;100206.94;4981266;28;20697;-73
2023/09/16 11:18:31;;;;;;;8.00;6.50;;;;;;;25.05;77.63;100223.34;4968426;28;20134;-73
2023/09/16 11:21:02;;;;;;;6.45;5.55;;;;;;;25.19;77.84;100214.53;4979326;28;20114;-74
2023/09/16 11:23:30;;;;;;;7.28;5.68;;;;;;;25.38;73.11;100208.75;4964789;28;20138;-72
2023/09/16 11:25:58;;;;;;;6.82;5.70;;;;;;;25.63;73.03;100216.88;4968903;28;20035;-73
2023/09/16 11:28:26;;;;;;;6.20;5.60;;;;;;;25.80;71.51;100213.09;4966942;28;20046;-73
2023/09/16 11:30:56;;;;;;;6.43;5.72;;;;;;;25.87;71.39;100216.78;4957749;28;20081;-74